Time;durP1;ratioP1;P1;durP2;ratioP2;P2;SDS_P1;SDS_P2;PMS_P1;PMS_P2;Temp;Humidity;BMP_temperature;BMP_pressure;BME280_temperature;BME280_humidity;BME280_pressure;Samples;Min_cycle;Max_cycle;Signal;HPM_P1;HPM_P2
2022/08/12 00:45:00;;;;;;;4.83;3.60;;;17.10;81.60;;;;;;5030011;28;20429;-66
2022/08/12 00:47:30;;;;;;;5.53;3.30;;;17.00;81.80;;;;;;5030326;28;20496;-67
2022/08/12 00:49:58;;;;;;;5.37;3.07;;;17.00;82.30;;;;;;5030129;28;20953;-66
2022/08/12 00:52:26;;;;;;;6.07;3.23;;;17.00;82.70;;;;;;5030157;28;20908;-67
2022/08/12 00:54:55;;;;;;;4.67;3.90;;;17.00;83.30;;;;;;5029741;28;20829;-65
2022/08/12 00:57:24;;;;;;;4.97;2.93;;;17.00;83.90;;;;;;5030184;28;20912;-66
2022/08/12 00:59:53;;;;;;;5.73;4.00;;;16.90;83.70;;;;;;5030072;28;20481;-67
2022/08/12 01:02:25;;;;;;;6.03;3.07;;;16.80;84.10;;;;;;5030081;28;20459;-66
2022/08/12 01:13:30;;;;;;;4.37;3.03;;;16.50;89.80;;;;;;4987963;28;21068;-67
2022/08/12 01:16:00;;;;;;;4.37;3.00;;;16.40;89.40;;;;;;4987619;28;20447;-66
2022/08/12 01:18:29;;;;;;;4.50;3.07;;;16.40;89.70;;;;;;5007280;28;20452;-66
2022/08/12 01:21:10;;;;;;;3.80;3.07;;;16.30;89.60;;;;;;5029985;28;20455;-67
2022/08/12 01:24:04;;;;;;;3.63;3.30;;;16.20;90.80;;;;;;5029959;28;20441;-67
2022/08/12 01:26:34;;;;;;;3.60;3.27;;;16.20;90.80;;;;;;5029757;28;21079;-66
2022/08/12 01:29:02;;;;;;;5.30;3.83;;;16.10;90.80;;;;;;5030442;28;20452;-66
2022/08/12 01:31:29;;;;;;;5.13;3.03;;;16.00;89.80;;;;;;5030017;28;20445;-66
2022/08/12 01:34:03;;;;;;;4.90;3.73;;;16.00;89.40;;;;;;5029759;28;20855;-66
2022/08/12 01:36:35;;;;;;;3.43;2.73;;;16.10;89.70;;;;;;5029609;28;20471;-67
2022/08/12 01:39:04;;;;;;;3.83;2.97;;;16.10;89.10;;;;;;5029631;28;20453;-67
2022/08/12 01:41:38;;;;;;;6.90;3.23;;;16.20;88.80;;;;;;5029720;28;20947;-66
2022/08/12 01:44:08;;;;;;;8.80;3.40;;;16.20;89.10;;;;;;5029540;28;20449;-66
2022/08/12 01:46:44;;;;;;;5.80;3.17;;;16.10;90.20;;;;;;5033270;28;20469;-66
2022/08/12 01:49:27;;;;;;;4.03;3.63;;;16.10;91.80;;;;;;5033553;28;20977;-67
2022/08/12 01:52:03;;;;;;;6.67;4.23;;;16.00;91.70;;;;;;5033458;28;20939;-66
2022/08/12 01:54:37;;;;;;;5.93;3.00;;;16.00;93.00;;;;;;5033216;28;20877;-66
2022/08/12 01:57:10;;;;;;;4.97;3.77;;;16.00;93.40;;;;;;5033294;28;20472;-66
2022/08/12 01:59:48;;;;;;;4.77;3.40;;;16.00;93.10;;;;;;5033584;28;20453;-67
2022/08/12 02:02:19;;;;;;;5.50;3.37;;;16.00;93.00;;;;;;5033470;28;20460;-66
2022/08/12 02:14:22;;;;;;;3.50;3.10;;;16.10;92.30;;;;;;5033133;28;20436;-66
2022/08/12 02:17:14;;;;;;;4.40;3.50;;;16.10;92.90;;;;;;4998174;28;20479;-66
2022/08/12 02:19:53;;;;;;;4.27;3.13;;;16.00;93.10;;;;;;5033075;28;20455;-66
2022/08/12 02:22:27;;;;;;;3.70;3.40;;;16.00;93.60;;;;;;5033245;28;20867;-66
2022/08/12 02:25:01;;;;;;;5.53;4.10;;;15.90;93.50;;;;;;5032703;28;20441;-66
2022/08/12 02:27:33;;;;;;;4.17;3.60;;;15.90;93.70;;;;;;5031687;28;20508;-66
2022/08/12 02:30:00;;;;;;;6.17;4.03;;;15.90;94.10;;;;;;5031551;28;20441;-67
2022/08/12 02:32:28;;;;;;;3.97;2.93;;;15.90;94.50;;;;;;5031258;28;20819;-66
2022/08/12 02:34:56;;;;;;;4.70;3.87;;;15.90;94.90;;;;;;5031436;28;20484;-66
2022/08/12 02:37:24;;;;;;;3.80;3.40;;;15.90;95.30;;;;;;5031437;28;20997;-65
2022/08/12 02:39:57;;;;;;;4.10;3.40;;;15.90;95.60;;;;;;5031493;28;20449;-66
2022/08/12 02:42:27;;;;;;;4.10;3.43;;;15.90;95.80;;;;;;5031458;28;20452;-66
2022/08/12 02:44:56;;;;;;;4.20;3.80;;;15.80;95.70;;;;;;5030956;28;20448;-66
2022/08/12 02:47:26;;;;;;;7.43;4.37;;;15.90;95.80;;;;;;5031258;28;20491;-66
2022/08/12 02:49:58;;;;;;;4.03;3.30;;;15.90;95.70;;;;;;5031389;28;20456;-66
2022/08/12 02:52:26;;;;;;;3.90;3.33;;;15.90;95.60;;;;;;5031327;28;20528;-65
2022/08/12 02:55:00;;;;;;;3.60;3.27;;;15.80;96.20;;;;;;5030695;28;20481;-65
2022/08/12 02:57:27;;;;;;;3.53;3.23;;;15.80;96.40;;;;;;5030957;28;20469;-66
2022/08/12 02:59:54;;;;;;;5.17;3.57;;;15.80;96.80;;;;;;5031383;28;20459;-66
2022/08/12 03:02:27;;;;;;;5.30;3.63;;;15.70;98.40;;;;;;5031295;28;20825;-64
2022/08/12 03:04:57;;;;;;;3.73;3.33;;;15.70;97.50;;;;;;5030965;28;20437;-67
2022/08/12 03:07:30;;;;;;;4.57;3.53;;;15.70;98.30;;;;;;5031021;28;20469;-66
2022/08/12 03:10:03;;;;;;;4.60;3.90;;;15.60;99.90;;;;;;5031040;28;20829;-67
2022/08/12 03:12:33;;;;;;;3.90;3.43;;;15.50;99.60;;;;;;5031108;28;20495;-67
2022/08/12 03:15:05;;;;;;;4.87;4.03;;;15.50;99.70;;;;;;5030668;28;20480;-67
2022/08/12 03:17:38;;;;;;;3.77;3.43;;;15.40;99.90;;;;;;5030986;28;20481;-66
2022/08/12 03:20:08;;;;;;;4.47;3.50;;;15.20;99.90;;;;;;5030791;28;20526;-66
2022/08/12 03:22:39;;;;;;;3.63;3.33;;;15.20;99.90;;;;;;5030710;28;20460;-66
2022/08/12 03:25:06;;;;;;;6.07;3.70;;;15.10;99.90;;;;;;5030739;28;20452;-66
2022/08/12 03:27:33;;;;;;;5.57;3.40;;;15.10;99.90;;;;;;4993701;28;1081904;-66
2022/08/12 03:30:00;;;;;;;4.10;3.37;;;15.20;99.90;;;;;;5031725;28;20217;-66
2022/08/12 03:32:29;;;;;;;4.63;3.60;;;15.10;99.90;;;;;;5031635;28;20453;-65
2022/08/12 03:34:58;;;;;;;5.20;3.93;;;15.10;99.90;;;;;;5031208;28;20492;-66
2022/08/12 03:37:29;;;;;;;5.73;3.93;;;15.00;99.90;;;;;;5031519;28;20919;-66
2022/08/12 03:39:56;;;;;;;4.20;3.80;;;15.00;99.90;;;;;;5031807;28;20453;-65
2022/08/12 03:42:34;;;;;;;12.23;4.53;;;14.90;99.90;;;;;;5031882;28;20455;-66
2022/08/12 04:01:57;;;;;;;4.10;3.57;;;14.60;99.90;;;;;;5031055;28;20431;-66
2022/08/12 04:04:26;;;;;;;4.40;3.53;;;14.60;99.90;;;;;;5031119;28;20449;-66
2022/08/12 04:06:56;;;;;;;3.90;3.50;;;14.70;99.90;;;;;;5030521;28;20841;-66
2022/08/12 04:09:25;;;;;;;4.40;3.47;;;14.60;99.90;;;;;;5030807;28;20452;-66
2022/08/12 04:14:37;;;;;;;4.17;3.77;;;14.60;99.90;;;;;;5030548;28;20988;-66
2022/08/12 04:17:04;;;;;;;4.17;3.77;;;14.50;99.90;;;;;;5030882;28;20484;-66
2022/08/12 04:19:31;;;;;;;4.63;4.13;;;14.50;99.90;;;;;;5030663;28;20831;-66
2022/08/12 04:22:00;;;;;;;8.47;4.60;;;14.50;99.90;;;;;;5030722;28;20457;-67
2022/08/12 04:24:28;;;;;;;8.00;3.97;;;14.50;99.90;;;;;;5030922;28;20518;-68
2022/08/12 04:26:55;;;;;;;8.23;4.63;;;14.60;99.90;;;;;;5030340;28;20480;-68
2022/08/12 04:29:22;;;;;;;4.50;4.07;;;14.50;99.90;;;;;;5030716;28;20811;-67
2022/08/12 04:31:49;;;;;;;5.60;4.20;;;14.50;99.90;;;;;;5030894;28;20834;-68
2022/08/12 04:34:17;;;;;;;4.47;4.07;;;14.50;99.90;;;;;;5030461;28;20445;-68
2022/08/12 04:36:44;;;;;;;8.97;4.20;;;14.60;99.90;;;;;;5030195;28;20556;-67
2022/08/12 04:39:12;;;;;;;8.03;4.00;;;14.50;99.90;;;;;;5030277;28;20445;-68
2022/08/12 04:41:43;;;;;;;3.90;3.57;;;14.60;99.90;;;;;;5030214;28;20480;-68
2022/08/12 04:44:10;;;;;;;7.90;3.90;;;14.70;99.90;;;;;;5030307;28;20453;-67
2022/08/12 04:46:37;;;;;;;5.13;4.37;;;14.80;99.90;;;;;;5029975;28;20465;-67
2022/08/12 04:49:05;;;;;;;4.97;4.07;;;14.70;99.90;;;;;;5029962;28;20448;-67
2022/08/12 04:51:33;;;;;;;6.03;4.23;;;14.80;99.90;;;;;;5030171;28;20822;-68
2022/08/12 04:54:01;;;;;;;3.87;3.50;;;14.70;99.90;;;;;;5030038;28;20452;-67
2022/08/12 04:56:28;;;;;;;6.70;4.67;;;14.80;99.90;;;;;;5029891;28;20496;-68
2022/08/12 04:58:57;;;;;;;7.47;4.83;;;14.70;99.90;;;;;;5030263;28;20445;-68
2022/08/12 05:01:26;;;;;;;8.37;4.83;;;14.70;99.90;;;;;;5030200;28;20453;-66
2022/08/12 05:03:56;;;;;;;5.53;4.40;;;14.70;99.90;;;;;;5029965;28;20453;-68
2022/08/12 05:06:24;;;;;;;5.10;4.17;;;14.80;99.90;;;;;;5029449;28;21003;-68
2022/08/12 05:08:55;;;;;;;5.10;4.30;;;14.90;99.90;;;;;;5030043;28;20974;-71
2022/08/12 05:11:23;;;;;;;5.50;3.57;;;14.80;99.90;;;;;;5030114;28;20456;-67
2022/08/12 05:13:52;;;;;;;5.40;4.53;;;14.90;99.90;;;;;;5029635;28;21295;-68
2022/08/12 05:16:20;;;;;;;5.33;3.80;;;15.00;99.90;;;;;;5029438;28;20494;-67
2022/08/12 05:18:48;;;;;;;4.97;4.27;;;15.00;99.90;;;;;;5029686;28;20448;-67
2022/08/12 05:21:15;;;;;;;6.33;4.20;;;15.10;99.90;;;;;;5029610;28;21013;-68
2022/08/12 05:23:42;;;;;;;6.40;4.37;;;15.00;99.90;;;;;;5029537;28;20850;-67
2022/08/12 05:26:10;;;;;;;6.53;3.90;;;15.10;99.90;;;;;;5029328;28;20476;-67
2022/08/12 05:28:37;;;;;;;6.33;4.50;;;15.20;99.90;;;;;;5029604;28;20441;-67
2022/08/12 05:31:04;;;;;;;8.20;4.67;;;15.30;99.90;;;;;;5029725;28;20445;-69
2022/08/12 05:33:37;;;;;;;4.40;4.00;;;15.20;99.90;;;;;;5029588;28;21005;-68
2022/08/12 05:36:07;;;;;;;9.73;5.30;;;15.30;99.90;;;;;;5029313;28;20484;-67
2022/08/12 05:41:20;;;;;;;6.10;4.03;;;15.60;99.90;;;;;;5029431;28;20929;-68
2022/08/12 05:43:48;;;;;;;6.57;4.40;;;15.60;99.90;;;;;;5029486;28;20441;-68
2022/08/12 05:46:15;;;;;;;5.10;4.23;;;15.60;99.90;;;;;;5028954;28;20488;-68
2022/08/12 05:48:43;;;;;;;6.00;4.90;;;15.70;99.90;;;;;;5029732;28;20444;-68
2022/08/12 05:51:11;;;;;;;5.67;4.60;;;15.80;99.90;;;;;;5029772;28;20797;-67
2022/08/12 05:53:38;;;;;;;7.70;5.10;;;15.90;99.90;;;;;;5029600;28;20448;-66
2022/08/12 05:56:06;;;;;;;6.73;4.10;;;16.00;99.90;;;;;;5029274;28;20489;-66
2022/08/12 05:58:33;;;;;;;5.50;4.10;;;16.00;99.90;;;;;;5029283;28;20456;-66
2022/08/12 06:01:00;;;;;;;7.23;4.10;;;16.10;99.90;;;;;;5029544;28;20568;-66
2022/08/12 06:03:27;;;;;;;7.37;4.60;;;16.20;99.90;;;;;;5029629;28;20480;-66
2022/08/12 06:05:56;;;;;;;7.83;4.10;;;16.30;99.90;;;;;;5028880;28;20965;-67
2022/08/12 06:08:24;;;;;;;6.97;4.80;;;16.30;99.90;;;;;;5029475;28;20531;-67
2022/08/12 06:10:52;;;;;;;9.17;4.77;;;16.40;99.90;;;;;;5027651;28;20455;-68
2022/08/12 06:13:19;;;;;;;39.87;9.70;;;16.50;99.90;;;;;;5027990;28;20456;-67
2022/08/12 06:15:48;;;;;;;41.27;11.37;;;16.70;99.90;;;;;;5028819;28;20862;-67
2022/08/12 06:18:14;;;;;;;8.93;5.60;;;16.80;99.90;;;;;;5028314;28;20445;-67
2022/08/12 06:20:42;;;;;;;10.30;4.70;;;16.80;99.90;;;;;;5028771;28;20445;-67
2022/08/12 06:23:10;;;;;;;6.20;4.30;;;17.00;99.90;;;;;;5029162;28;20484;-68
2022/08/12 06:25:37;;;;;;;8.10;4.83;;;17.20;99.90;;;;;;5029343;28;20456;-68
2022/08/12 06:28:13;;;;;;;7.70;4.83;;;17.30;99.90;;;;;;5029289;28;20845;-67
2022/08/12 06:30:40;;;;;;;6.30;4.60;;;17.60;99.90;;;;;;5029933;28;20476;-67
2022/08/12 06:33:08;;;;;;;5.27;4.37;;;17.80;99.90;;;;;;5032726;28;20463;-68
2022/08/12 06:35:34;;;;;;;5.90;4.20;;;17.90;99.90;;;;;;5032285;28;20520;-67
2022/08/12 06:38:02;;;;;;;6.77;3.80;;;18.00;99.90;;;;;;5032479;28;20828;-68
2022/08/12 06:43:14;;;;;;;5.20;3.80;;;18.40;99.90;;;;;;5032442;28;20431;-68
2022/08/12 06:45:48;;;;;;;5.23;4.43;;;18.50;99.90;;;;;;5032507;28;20441;-67
2022/08/12 06:48:15;;;;;;;7.23;4.40;;;18.60;99.90;;;;;;5032412;28;20498;-67
2022/08/12 06:50:43;;;;;;;4.83;3.90;;;18.70;99.80;;;;;;5032301;28;20454;-68
2022/08/12 06:53:10;;;;;;;4.10;3.70;;;18.80;99.00;;;;;;5032400;28;20441;-68
2022/08/12 06:55:40;;;;;;;7.10;4.70;;;18.80;99.90;;;;;;5031816;28;20481;-67
2022/08/12 06:58:07;;;;;;;5.90;4.17;;;19.00;98.70;;;;;;5031966;28;20453;-67
2022/08/12 07:00:34;;;;;;;5.93;4.23;;;19.20;98.10;;;;;;5031896;28;20441;-67
2022/08/12 07:03:03;;;;;;;6.37;4.40;;;19.20;98.70;;;;;;5031825;28;20453;-67
2022/08/12 07:05:30;;;;;;;5.20;3.97;;;19.30;98.90;;;;;;5031898;28;20447;-68
2022/08/12 07:08:11;;;;;;;4.60;3.80;;;19.40;98.70;;;;;;5031991;28;20504;-67
2022/08/12 07:10:44;;;;;;;3.93;3.50;;;19.40;98.30;;;;;;5031861;28;20821;-68
2022/08/12 07:13:11;;;;;;;5.73;4.27;;;19.50;97.80;;;;;;5031952;28;20503;-67
2022/08/12 07:15:42;;;;;;;4.87;4.03;;;19.70;97.00;;;;;;5031463;28;21076;-68
2022/08/12 07:18:14;;;;;;;7.23;3.80;;;19.90;96.00;;;;;;5032121;28;20504;-68
2022/08/12 07:20:42;;;;;;;6.73;3.70;;;20.10;95.50;;;;;;5031953;28;20449;-68
2022/08/12 07:23:09;;;;;;;6.10;4.50;;;20.30;95.40;;;;;;5031829;28;20832;-67
2022/08/12 07:25:38;;;;;;;5.13;3.90;;;20.40;94.90;;;;;;5031022;28;20958;-68
2022/08/12 07:28:09;;;;;;;8.67;4.30;;;20.60;94.40;;;;;;5031663;28;20934;-68
2022/08/12 07:30:39;;;;;;;5.40;3.50;;;20.70;93.80;;;;;;5031858;28;20440;-68
2022/08/12 07:33:08;;;;;;;6.57;3.63;;;20.90;94.10;;;;;;5032300;28;20538;-68
2022/08/12 07:35:44;;;;;;;8.17;4.00;;;21.00;93.90;;;;;;5031265;28;20492;-68
2022/08/12 07:38:26;;;;;;;6.97;3.40;;;21.10;92.30;;;;;;5031588;28;20448;-68
2022/08/12 07:40:56;;;;;;;5.77;3.80;;;21.40;90.50;;;;;;5031393;28;20487;-68
2022/08/12 07:43:25;;;;;;;4.70;3.80;;;21.50;90.50;;;;;;5030504;28;20460;-68
2022/08/12 07:45:53;;;;;;;4.63;3.20;;;21.70;88.90;;;;;;5031112;28;21037;-68
2022/08/12 07:48:21;;;;;;;4.53;3.13;;;21.80;90.10;;;;;;5031258;28;20457;-68
2022/08/12 07:50:48;;;;;;;4.40;3.20;;;22.00;89.10;;;;;;5031180;28;20457;-68
2022/08/12 07:53:15;;;;;;;4.10;3.27;;;22.10;87.70;;;;;;5031302;28;20449;-68
2022/08/12 07:55:41;;;;;;;3.97;2.87;;;22.20;87.50;;;;;;5031681;28;20491;-68
2022/08/12 07:58:08;;;;;;;4.60;3.20;;;22.40;89.60;;;;;;5031857;28;20456;-68
2022/08/12 08:00:39;;;;;;;7.70;3.67;;;22.50;85.80;;;;;;5031176;28;20545;-68
2022/08/12 08:03:07;;;;;;;6.97;3.42;;;22.60;83.80;;;;;;5029987;28;20822;-67
2022/08/12 08:05:39;;;;;;;4.00;3.00;;;22.70;83.50;;;;;;5030845;28;20209;-67
2022/08/12 08:08:16;;;;;;;4.47;3.03;;;22.90;81.50;;;;;;5031663;28;20449;-67
2022/08/12 08:10:43;;;;;;;4.23;2.70;;;23.00;79.60;;;;;;5031870;28;20476;-68
2022/08/12 08:13:11;;;;;;;4.83;2.90;;;23.10;79.60;;;;;;5031302;28;20480;-68
2022/08/12 08:15:40;;;;;;;5.30;3.00;;;23.20;80.80;;;;;;5030615;28;20480;-68
2022/08/12 08:18:09;;;;;;;8.93;3.00;;;23.30;78.60;;;;;;5030666;28;20902;-68
2022/08/12 08:20:39;;;;;;;4.00;2.90;;;23.40;78.30;;;;;;5031044;28;20823;-68
2022/08/12 08:23:10;;;;;;;5.00;2.70;;;23.50;78.20;;;;;;5031029;28;20449;-68
2022/08/12 08:25:38;;;;;;;4.87;3.03;;;23.70;77.80;;;;;;5030485;28;20449;-68
2022/08/12 08:28:08;;;;;;;5.13;3.27;;;23.80;78.10;;;;;;5030575;28;20556;-68
2022/08/12 08:30:38;;;;;;;12.20;3.70;;;23.90;78.00;;;;;;5030836;28;20480;-68
2022/08/12 08:33:09;;;;;;;8.90;4.00;;;24.10;78.00;;;;;;5030322;28;20464;-67
2022/08/12 08:35:38;;;;;;;9.10;3.40;;;24.20;77.70;;;;;;5030359;28;20571;-68
2022/08/12 08:38:09;;;;;;;3.47;2.97;;;24.30;76.10;;;;;;5030217;28;20477;-67
2022/08/12 08:43:22;;;;;;;5.40;3.07;;;24.50;73.00;;;;;;5030799;28;20542;-68
2022/08/12 08:45:49;;;;;;;3.27;2.63;;;24.50;72.50;;;;;;5029945;28;20451;-69
2022/08/12 08:48:17;;;;;;;4.23;2.93;;;24.60;68.00;;;;;;5030497;28;20449;-68
2022/08/12 08:50:44;;;;;;;5.10;2.80;;;24.70;68.40;;;;;;5030313;28;20460;-68
2022/08/12 08:53:11;;;;;;;36.53;6.33;;;24.70;69.50;;;;;;5029808;28;20947;-68
2022/08/12 08:55:39;;;;;;;13.90;4.30;;;24.90;72.00;;;;;;5029838;28;20519;-68
2022/08/12 08:58:07;;;;;;;6.53;3.10;;;25.00;70.10;;;;;;5030073;28;20820;-68
2022/08/12 09:00:37;;;;;;;6.33;3.13;;;25.20;68.30;;;;;;5030094;28;21045;-68
2022/08/12 09:03:04;;;;;;;3.97;2.70;;;25.40;66.50;;;;;;5030061;28;20942;-67
2022/08/12 09:05:33;;;;;;;4.00;2.83;;;25.50;66.60;;;;;;5029829;28;20472;-68
2022/08/12 09:08:01;;;;;;;3.90;3.37;;;25.60;66.00;;;;;;5029890;28;20473;-68
2022/08/12 09:10:29;;;;;;;3.13;2.57;;;25.70;66.20;;;;;;5029865;28;20449;-68
2022/08/12 09:15:41;;;;;;;3.10;2.73;;;26.10;62.50;;;;;;5029546;28;20447;-68
2022/08/12 09:18:10;;;;;;;3.37;2.80;;;26.30;62.60;;;;;;5029888;28;20448;-68
2022/08/12 09:20:40;;;;;;;8.30;3.40;;;26.50;61.80;;;;;;5029766;28;20502;-68
2022/08/12 09:23:09;;;;;;;5.13;2.50;;;26.70;62.50;;;;;;5029722;28;20437;-68
2022/08/12 09:25:38;;;;;;;2.97;2.17;;;26.80;58.90;;;;;;5029609;28;20942;-68
2022/08/12 09:28:06;;;;;;;3.87;2.50;;;26.90;58.60;;;;;;5029693;28;20473;-68
2022/08/12 09:30:33;;;;;;;3.57;2.53;;;27.00;60.50;;;;;;5029853;28;20502;-68
2022/08/12 09:33:00;;;;;;;3.77;2.40;;;27.10;58.90;;;;;;5029714;28;20445;-68
2022/08/12 09:35:30;;;;;;;6.10;2.87;;;27.30;59.80;;;;;;5029318;28;20452;-69
2022/08/12 09:37:59;;;;;;;4.03;2.17;;;27.50;57.50;;;;;;5029615;28;21173;-68
2022/08/12 09:40:26;;;;;;;3.47;2.00;;;27.70;57.00;;;;;;5029877;28;20898;-68
2022/08/12 09:45:38;;;;;;;3.50;2.40;;;28.10;55.10;;;;;;5029314;28;20420;-69
2022/08/12 09:48:06;;;;;;;3.93;3.00;;;28.20;53.70;;;;;;5029652;28;20472;-68
2022/08/12 09:50:34;;;;;;;3.83;2.23;;;28.70;55.00;;;;;;5029780;28;20445;-69
2022/08/12 09:53:07;;;;;;;2.73;2.00;;;29.10;53.20;;;;;;5029719;28;20453;-69
2022/08/12 09:55:34;;;;;;;2.70;1.80;;;29.70;51.60;;;;;;5029267;28;20448;-66
2022/08/12 09:58:01;;;;;;;3.90;2.17;;;30.00;50.60;;;;;;5029415;28;20939;-66
2022/08/12 10:00:28;;;;;;;4.20;1.90;;;30.80;50.00;;;;;;5029406;28;20831;-68
2022/08/12 10:02:59;;;;;;;2.83;2.20;;;31.10;48.90;;;;;;5029816;28;20828;-67
2022/08/12 10:05:26;;;;;;;5.17;2.50;;;31.30;48.40;;;;;;5029976;28;20543;-68
2022/08/12 10:07:53;;;;;;;2.53;1.90;;;31.60;48.70;;;;;;5033389;28;20461;-67
2022/08/12 10:10:21;;;;;;;6.10;2.10;;;32.00;47.00;;;;;;5033418;28;20467;-67
2022/08/12 10:15:32;;;;;;;3.30;2.27;;;31.40;47.00;;;;;;5033294;28;20471;-67
2022/08/12 10:17:59;;;;;;;3.13;2.00;;;31.10;47.50;;;;;;5033155;28;20488;-68
2022/08/12 10:20:26;;;;;;;3.87;1.90;;;31.10;46.90;;;;;;5033389;28;20467;-69
2022/08/12 10:23:00;;;;;;;2.40;1.83;;;31.10;47.50;;;;;;5033478;28;20448;-67
2022/08/12 10:30:57;;;;;;;3.60;1.90;;;31.00;46.30;;;;;;5033088;28;20412;-68
2022/08/12 10:33:24;;;;;;;3.13;2.10;;;31.30;46.40;;;;;;5032905;28;20528;-67
2022/08/12 10:35:52;;;;;;;4.13;1.87;;;31.00;46.20;;;;;;5032317;28;20448;-68
2022/08/12 10:38:19;;;;;;;2.70;1.90;;;31.40;45.30;;;;;;5033119;28;20455;-66
2022/08/12 10:43:43;;;;;;;4.13;2.00;;;32.00;45.10;;;;;;5032855;28;20436;-67
2022/08/12 10:46:16;;;;;;;15.20;3.63;;;32.50;43.70;;;;;;5032129;28;20465;-68
2022/08/12 10:48:46;;;;;;;2.60;2.00;;;32.20;45.10;;;;;;5032804;28;20476;-68
2022/08/12 10:51:13;;;;;;;3.80;1.90;;;32.00;43.70;;;;;;5032508;28;20448;-68
2022/08/12 10:53:40;;;;;;;2.63;2.10;;;31.70;44.90;;;;;;5032523;28;20453;-67
2022/08/12 10:56:10;;;;;;;4.53;2.27;;;30.70;44.70;;;;;;5032076;28;20475;-67
2022/08/12 10:58:37;;;;;;;3.07;2.00;;;29.90;45.30;;;;;;5032345;28;20449;-67
2022/08/12 11:01:04;;;;;;;3.60;1.70;;;30.00;46.30;;;;;;5032521;28;20459;-67
2022/08/12 11:03:35;;;;;;;2.60;2.00;;;30.50;45.10;;;;;;5032440;28;20460;-67
2022/08/12 11:06:03;;;;;;;2.30;1.50;;;31.10;45.90;;;;;;5031970;28;20469;-67
2022/08/12 11:08:30;;;;;;;3.13;2.10;;;31.80;45.00;;;;;;5032254;28;20452;-67
2022/08/12 11:10:57;;;;;;;22.27;5.00;;;32.30;44.10;;;;;;5032060;28;20445;-68
2022/08/12 11:13:25;;;;;;;3.93;2.00;;;32.90;44.60;;;;;;5032060;28;20449;-67
2022/08/12 11:15:54;;;;;;;2.63;1.50;;;33.30;41.90;;;;;;5031757;28;20457;-67
2022/08/12 11:18:22;;;;;;;3.03;1.63;;;33.80;41.10;;;;;;5031764;28;21014;-67
2022/08/12 11:20:50;;;;;;;3.97;1.97;;;33.90;41.10;;;;;;5032205;28;20452;-68
2022/08/12 11:23:17;;;;;;;7.87;2.50;;;33.40;38.80;;;;;;5032029;28;20966;-67
2022/08/12 11:25:44;;;;;;;3.50;1.83;;;33.00;41.40;;;;;;5031307;28;20441;-68
2022/08/12 11:28:11;;;;;;;3.00;1.70;;;33.40;40.80;;;;;;5031878;28;21110;-68
2022/08/12 11:30:39;;;;;;;2.87;2.10;;;33.80;41.00;;;;;;5031892;28;20471;-67
2022/08/12 11:33:06;;;;;;;2.53;1.87;;;34.50;40.90;;;;;;5031678;28;20452;-67
2022/08/12 11:35:35;;;;;;;9.87;2.87;;;34.30;39.80;;;;;;5031342;28;20449;-66
2022/08/12 11:38:01;;;;;;;4.80;2.60;;;34.80;38.80;;;;;;5031472;28;20936;-68
2022/08/12 11:40:29;;;;;;;2.53;1.80;;;35.30;38.00;;;;;;5031605;28;20449;-68
2022/08/12 11:42:56;;;;;;;2.77;2.00;;;35.70;37.50;;;;;;5031726;28;20453;-66
2022/08/12 11:45:23;;;;;;;3.73;1.77;;;36.30;38.10;;;;;;5031318;28;20977;-68
2022/08/12 11:47:53;;;;;;;5.70;2.10;;;36.20;37.00;;;;;;5031535;28;20468;-67
2022/08/12 11:50:20;;;;;;;4.53;1.77;;;35.80;35.70;;;;;;5031430;28;20449;-68
2022/08/12 11:52:47;;;;;;;5.43;1.90;;;35.50;37.90;;;;;;5031277;28;20455;-68
2022/08/12 11:55:14;;;;;;;4.70;1.80;;;35.70;38.60;;;;;;5031126;28;20461;-68
2022/08/12 11:57:51;;;;;;;2.93;1.83;;;35.90;37.40;;;;;;5031427;28;20493;-68
2022/08/12 12:00:19;;;;;;;2.83;2.10;;;35.80;37.00;;;;;;5031449;28;20448;-67
2022/08/12 12:02:46;;;;;;;3.27;1.80;;;35.80;37.00;;;;;;5031398;28;20492;-68
2022/08/12 12:05:15;;;;;;;4.03;2.03;;;36.20;37.20;;;;;;5030771;28;20445;-68
2022/08/12 12:07:43;;;;;;;2.50;1.70;;;36.80;35.30;;;;;;5031065;28;20522;-68
2022/08/12 12:10:12;;;;;;;4.67;1.70;;;37.10;34.90;;;;;;5031255;28;20445;-68
2022/08/12 12:12:39;;;;;;;2.30;1.77;;;36.70;35.40;;;;;;5031214;28;20523;-68
2022/08/12 12:15:07;;;;;;;7.30;2.00;;;36.40;35.40;;;;;;5030736;28;20455;-68
2022/08/12 12:17:35;;;;;;;6.43;1.87;;;36.70;35.60;;;;;;5030837;28;20484;-68
2022/08/12 12:20:04;;;;;;;4.00;1.80;;;36.90;34.10;;;;;;5030626;28;20498;-67
2022/08/12 12:22:32;;;;;;;2.53;1.93;;;36.40;35.50;;;;;;5030934;28;20971;-67
2022/08/12 12:24:59;;;;;;;2.40;1.70;;;35.90;37.10;;;;;;5030674;28;20453;-67
2022/08/12 12:27:26;;;;;;;2.83;1.87;;;35.50;35.80;;;;;;5030585;28;20473;-67
2022/08/12 12:29:55;;;;;;;2.60;1.80;;;33.40;37.10;;;;;;5030223;28;20444;-67
2022/08/12 12:32:22;;;;;;;4.97;2.63;;;32.30;40.40;;;;;;5030704;28;20961;-68
2022/08/12 12:34:48;;;;;;;4.20;1.97;;;32.60;42.60;;;;;;5030822;28;20445;-68
2022/08/12 12:37:15;;;;;;;3.17;2.00;;;33.70;40.50;;;;;;5030855;28;20487;-67
2022/08/12 12:39:43;;;;;;;3.30;2.30;;;34.80;39.20;;;;;;5031123;28;20819;-68
2022/08/12 12:42:10;;;;;;;3.00;2.10;;;35.70;38.20;;;;;;5030992;28;20459;-68
2022/08/12 12:44:37;;;;;;;3.90;2.00;;;35.50;39.50;;;;;;5030429;28;20859;-68
2022/08/12 12:47:04;;;;;;;2.80;2.00;;;36.00;36.10;;;;;;5030150;28;20469;-67
2022/08/12 12:49:31;;;;;;;5.43;1.90;;;36.10;37.10;;;;;;5030708;28;20452;-67
2022/08/12 12:51:57;;;;;;;4.00;2.10;;;36.80;36.70;;;;;;5030737;28;20448;-68
2022/08/12 12:54:24;;;;;;;3.20;1.87;;;37.00;35.90;;;;;;5030169;28;20467;-65
2022/08/12 12:56:53;;;;;;;3.67;1.77;;;36.60;36.40;;;;;;5030294;28;20519;-68
2022/08/12 12:59:23;;;;;;;2.80;1.70;;;35.90;37.20;;;;;;5030212;28;20457;-67
2022/08/12 13:01:50;;;;;;;6.20;2.10;;;35.80;37.80;;;;;;5030103;28;20481;-68
2022/08/12 13:04:17;;;;;;;3.50;1.50;;;36.10;37.90;;;;;;5030649;28;20452;-67
2022/08/12 13:06:49;;;;;;;4.20;1.87;;;37.00;37.70;;;;;;5029971;28;20462;-67
2022/08/12 13:09:16;;;;;;;3.13;1.83;;;38.10;36.60;;;;;;5030190;28;20728;-67
2022/08/12 13:11:43;;;;;;;2.77;2.00;;;39.20;36.10;;;;;;5030135;28;20859;-68
2022/08/12 13:14:12;;;;;;;2.40;1.60;;;40.00;33.10;;;;;;5029982;28;20441;-68
2022/08/12 13:16:42;;;;;;;4.57;2.00;;;40.80;33.50;;;;;;5029750;28;20472;-69
2022/08/12 13:19:09;;;;;;;3.30;1.93;;;41.30;31.60;;;;;;5030053;28;20553;-69
2022/08/12 13:22:14;;;;;;;2.97;1.80;;;41.20;30.70;;;;;;5029807;28;20452;-69
2022/08/12 13:24:23;;;;;;;5.13;1.70;;;39.60;33.00;;;;;;5029581;28;20449;-69
2022/08/12 13:26:50;;;;;;;2.07;1.50;;;38.40;30.70;;;;;;5029490;28;21155;-68
2022/08/12 13:29:18;;;;;;;2.93;1.60;;;37.30;32.00;;;;;;5029632;28;20455;-68
2022/08/12 13:31:47;;;;;;;3.87;1.63;;;36.70;34.10;;;;;;5029843;28;20850;-69
2022/08/12 13:34:14;;;;;;;4.63;2.60;;;37.60;33.70;;;;;;5029736;28;20532;-68
2022/08/12 13:36:42;;;;;;;4.17;1.73;;;38.70;32.10;;;;;;5029475;28;20476;-68
2022/08/12 13:39:09;;;;;;;4.67;2.63;;;39.50;31.00;;;;;;5029681;28;20571;-68
2022/08/12 13:41:36;;;;;;;5.67;1.63;;;39.90;30.90;;;;;;5033975;28;20807;-68
2022/08/12 13:44:05;;;;;;;2.90;1.70;;;39.20;30.00;;;;;;5034064;28;20479;-68
2022/08/12 13:46:34;;;;;;;2.73;1.93;;;38.00;32.80;;;;;;5033610;28;20491;-68
2022/08/12 13:49:03;;;;;;;3.10;1.70;;;37.40;33.50;;;;;;5033748;28;20832;-67
2022/08/12 13:51:31;;;;;;;3.40;1.60;;;36.10;34.40;;;;;;5033540;28;20551;-67
2022/08/12 13:53:58;;;;;;;3.33;1.80;;;34.70;34.80;;;;;;5033796;28;20452;-68
2022/08/12 13:56:25;;;;;;;2.30;1.70;;;33.30;35.40;;;;;;5033109;28;20475;-68
2022/08/12 13:58:52;;;;;;;2.93;1.93;;;32.20;37.20;;;;;;5033640;28;20568;-68
2022/08/12 14:01:20;;;;;;;4.03;1.90;;;31.30;37.80;;;;;;5033594;28;20448;-68
2022/08/12 14:03:49;;;;;;;2.80;2.00;;;31.40;39.30;;;;;;5033474;28;20456;-67
2022/08/12 14:06:16;;;;;;;6.17;1.90;;;32.70;37.40;;;;;;5032946;28;20544;-67
2022/08/12 14:08:44;;;;;;;2.70;2.20;;;34.10;36.20;;;;;;5033293;28;20451;-67
2022/08/12 14:11:11;;;;;;;3.93;2.80;;;33.90;35.80;;;;;;5033488;28;20456;-67
2022/08/12 14:13:38;;;;;;;5.03;3.87;;;33.60;36.20;;;;;;5033368;28;20480;-67
2022/08/12 14:16:06;;;;;;;4.80;1.87;;;33.70;36.20;;;;;;5032757;28;20974;-68
2022/08/12 14:18:34;;;;;;;4.13;2.10;;;32.90;37.50;;;;;;5033035;28;20487;-67
2022/08/12 14:21:08;;;;;;;4.00;1.90;;;32.10;38.20;;;;;;5033138;28;20460;-68
2022/08/12 14:23:36;;;;;;;3.13;1.63;;;31.00;38.60;;;;;;5033403;28;20479;-68
2022/08/12 14:26:05;;;;;;;2.87;1.70;;;30.20;40.00;;;;;;5032655;28;20472;-68
2022/08/12 14:28:34;;;;;;;2.90;1.80;;;29.70;42.30;;;;;;5033131;28;20833;-68
2022/08/12 14:31:03;;;;;;;2.80;1.97;;;29.90;44.10;;;;;;5032973;28;20452;-68
2022/08/12 14:33:32;;;;;;;4.80;2.40;;;31.80;41.30;;;;;;5032804;28;20449;-68
2022/08/12 14:36:00;;;;;;;2.30;1.70;;;34.00;38.50;;;;;;5032640;28;20541;-68
2022/08/12 14:38:30;;;;;;;2.60;1.77;;;35.70;35.40;;;;;;5032875;28;20488;-68
2022/08/12 14:40:59;;;;;;;3.53;1.40;;;36.80;33.30;;;;;;5032796;28;20449;-68